Time;durP1;ratioP1;P1;durP2;ratioP2;P2;SDS_P1;SDS_P2;PMS_P1;PMS_P2;Temp;Humidity;BMP_temperature;BMP_pressure;BME280_temperature;BME280_humidity;BME280_pressure;Samples;Min_cycle;Max_cycle;Signal;HPM_P1;HPM_P2
2022/10/01 00:00:27;;;;;;;0.15;0.15;;;16.10;83.00;;;;;;4144587;28;20188;-68
2022/10/01 00:03:09;;;;;;;0.00;0.00;;;16.10;83.10;;;;;;4144280;28;20801;-68
2022/10/01 00:05:59;;;;;;;0.17;0.17;;;16.10;83.20;;;;;;4144109;28;20156;-68
2022/10/01 00:08:47;;;;;;;0.03;0.03;;;16.10;83.30;;;;;;4144228;28;20053;-69
2022/10/01 00:11:28;;;;;;;0.00;0.00;;;16.10;83.40;;;;;;4151888;28;20052;-69
2022/10/01 00:14:09;;;;;;;0.15;0.15;;;16.10;83.60;;;;;;4160363;28;20052;-68
2022/10/01 00:16:50;;;;;;;0.00;0.00;;;16.10;83.60;;;;;;4160368;28;20049;-68
2022/10/01 00:19:31;;;;;;;0.00;0.00;;;16.10;83.70;;;;;;4159400;28;20060;-69
2022/10/01 00:22:12;;;;;;;0.00;0.00;;;16.10;83.80;;;;;;4160474;28;20079;-69
2022/10/01 00:24:54;;;;;;;0.00;0.00;;;16.00;83.90;;;;;;4143780;28;20045;-69
2022/10/01 00:27:36;;;;;;;0.00;0.00;;;16.00;84.00;;;;;;4143681;28;20057;-69
2022/10/01 00:30:16;;;;;;;0.00;0.00;;;16.00;84.20;;;;;;4144122;28;20117;-69
2022/10/01 00:32:57;;;;;;;0.00;0.00;;;16.00;84.10;;;;;;4143658;28;20557;-69
2022/10/01 00:35:38;;;;;;;0.00;0.00;;;16.00;84.20;;;;;;4154669;28;20311;-69
2022/10/01 00:38:19;;;;;;;0.00;0.00;;;16.00;84.30;;;;;;4159660;28;20127;-68
2022/10/01 00:41:01;;;;;;;0.00;0.00;;;16.00;84.40;;;;;;4143887;28;20065;-69
2022/10/01 00:43:45;;;;;;;0.00;0.00;;;16.00;84.40;;;;;;4143794;28;20057;-68
2022/10/01 00:46:38;;;;;;;0.75;0.45;;;16.00;84.60;;;;;;4143506;28;20045;-68
2022/10/01 00:49:23;;;;;;;0.47;0.47;;;16.00;84.60;;;;;;4143003;28;20220;-68
2022/10/01 00:52:08;;;;;;;0.00;0.00;;;16.00;84.80;;;;;;4141881;28;20097;-67
2022/10/01 00:54:52;;;;;;;0.00;0.00;;;16.00;84.90;;;;;;4150179;28;20067;-66
2022/10/01 00:57:35;;;;;;;0.10;0.10;;;16.00;85.00;;;;;;4143148;28;20052;-66
2022/10/01 01:00:15;;;;;;;0.00;0.00;;;16.00;85.00;;;;;;4157466;28;20122;-67
2022/10/01 01:02:58;;;;;;;0.03;0.03;;;16.00;85.00;;;;;;4159875;28;20064;-67
2022/10/01 01:05:39;;;;;;;0.63;0.63;;;15.90;85.10;;;;;;4159370;28;20064;-65
2022/10/01 01:08:20;;;;;;;0.00;0.00;;;15.90;85.10;;;;;;4159442;28;20052;-65
2022/10/01 01:11:14;;;;;;;0.00;0.00;;;15.90;85.30;;;;;;4157598;28;20059;-65
2022/10/01 01:14:02;;;;;;;0.00;0.00;;;15.90;85.40;;;;;;4142912;28;20160;-65
2022/10/01 01:16:49;;;;;;;0.00;0.00;;;15.90;85.60;;;;;;4142897;28;20103;-64
2022/10/01 01:19:51;;;;;;;0.00;0.00;;;15.90;85.70;;;;;;4145569;28;20139;-67
2022/10/01 01:22:36;;;;;;;0.40;0.40;;;15.90;85.90;;;;;;4146706;28;20060;-68
2022/10/01 01:25:20;;;;;;;0.00;0.00;;;15.90;85.90;;;;;;4142852;28;20048;-68
2022/10/01 01:28:12;;;;;;;0.00;0.00;;;15.90;85.90;;;;;;4143070;28;20053;-68
2022/10/01 01:30:57;;;;;;;0.00;0.00;;;15.80;86.80;;;;;;4143796;28;20053;-68
2022/10/01 01:33:42;;;;;;;0.00;0.00;;;15.80;86.00;;;;;;4142752;28;20095;-65
2022/10/01 01:36:29;;;;;;;0.10;0.10;;;15.80;86.10;;;;;;4142683;28;20391;-65
2022/10/01 01:39:12;;;;;;;0.00;0.00;;;15.80;86.20;;;;;;4142678;28;20127;-65
2022/10/01 01:41:58;;;;;;;0.38;0.38;;;15.80;86.20;;;;;;4150039;28;20135;-65
2022/10/01 01:44:45;;;;;;;0.00;0.00;;;15.80;86.30;;;;;;4159395;28;20193;-65
2022/10/01 01:47:31;;;;;;;0.28;0.28;;;15.80;86.50;;;;;;4158780;28;20230;-64
2022/10/01 01:50:14;;;;;;;1.00;1.00;;;15.80;86.60;;;;;;4158213;28;20068;-65
2022/10/01 01:52:55;;;;;;;0.00;0.00;;;15.80;86.70;;;;;;4159134;28;20056;-65
2022/10/01 01:55:36;;;;;;;;;;;15.80;86.70;;;;;;4159122;28;20076;-65
2022/10/01 01:58:18;;;;;;;0.00;0.00;;;15.80;86.80;;;;;;4143894;28;20405;-65
2022/10/01 02:01:02;;;;;;;0.00;0.00;;;15.80;86.90;;;;;;4142831;28;20052;-67
2022/10/01 02:03:43;;;;;;;0.52;0.30;;;15.80;86.90;;;;;;4130653;28;20219;-67
2022/10/01 02:06:34;;;;;;;0.00;0.00;;;15.80;86.80;;;;;;4142611;28;20061;-67
2022/10/01 02:09:22;;;;;;;0.00;0.00;;;15.80;87.00;;;;;;4142237;28;20521;-67
2022/10/01 02:12:13;;;;;;;0.10;0.10;;;15.70;87.00;;;;;;4152541;28;20941;-67
2022/10/01 02:15:00;;;;;;;0.00;0.00;;;15.70;87.10;;;;;;4142556;28;20185;-67
2022/10/01 02:17:53;;;;;;;0.13;0.13;;;15.70;87.10;;;;;;4129510;28;20045;-68
2022/10/01 02:20:39;;;;;;;0.00;0.00;;;15.80;87.20;;;;;;4146318;28;21555;-67
2022/10/01 02:23:23;;;;;;;0.00;0.00;;;15.70;87.10;;;;;;4142781;28;20107;-67
2022/10/01 02:26:10;;;;;;;0.00;0.00;;;15.70;88.10;;;;;;4142256;28;20048;-67
2022/10/01 02:28:57;;;;;;;0.00;0.00;;;15.70;87.30;;;;;;4151549;28;20175;-67
2022/10/01 02:31:38;;;;;;;0.00;0.00;;;15.70;87.50;;;;;;4157887;28;20406;-64
2022/10/01 02:34:23;;;;;;;0.00;0.00;;;15.70;87.50;;;;;;4157066;28;20402;-64
2022/10/01 02:37:05;;;;;;;0.08;0.08;;;15.70;87.60;;;;;;4158166;28;20048;-64
2022/10/01 02:39:48;;;;;;;0.00;0.00;;;15.70;87.60;;;;;;4158135;28;20078;-64
2022/10/01 02:42:30;;;;;;;0.00;0.00;;;15.70;87.70;;;;;;4158281;28;20119;-64
2022/10/01 02:45:13;;;;;;;0.00;0.00;;;15.70;87.70;;;;;;4142214;28;20048;-64
2022/10/01 02:47:57;;;;;;;0.00;0.00;;;15.70;87.90;;;;;;4143928;28;20048;-64
2022/10/01 02:50:46;;;;;;;0.00;0.00;;;15.70;87.90;;;;;;4159071;28;20128;-68
2022/10/01 02:53:32;;;;;;;0.63;0.63;;;15.70;88.00;;;;;;4156275;28;20282;-69
2022/10/01 02:57:21;;;;;;;0.00;0.00;;;15.70;87.90;;;;;;4156435;28;20052;-67
2022/10/01 02:59:14;;;;;;;0.00;0.00;;;15.70;87.90;;;;;;4142823;28;20064;-68
2022/10/01 03:01:55;;;;;;;0.00;0.00;;;15.70;87.90;;;;;;4141775;28;20123;-67
2022/10/01 03:04:38;;;;;;;0.03;0.03;;;15.70;87.90;;;;;;4140971;28;20065;-68
2022/10/01 03:07:26;;;;;;;0.00;0.00;;;15.70;87.90;;;;;;4143194;28;20163;-68
2022/10/01 03:10:09;;;;;;;0.22;0.22;;;15.70;88.00;;;;;;4158320;28;20044;-68
2022/10/01 03:12:50;;;;;;;0.00;0.00;;;15.70;87.90;;;;;;4158458;28;20053;-69
2022/10/01 03:15:31;;;;;;;1.08;0.43;;;15.70;88.00;;;;;;4158308;28;20060;-69
2022/10/01 03:18:12;;;;;;;0.00;0.00;;;15.70;88.10;;;;;;4156122;28;20123;-68
2022/10/01 03:20:53;;;;;;;0.00;0.00;;;15.70;88.10;;;;;;4141921;28;20096;-68
2022/10/01 03:23:35;;;;;;;0.00;0.00;;;15.70;88.10;;;;;;4142077;28;20056;-67
2022/10/01 03:26:18;;;;;;;0.00;0.00;;;15.70;89.00;;;;;;4141851;28;20049;-68
2022/10/01 03:28:59;;;;;;;;;;;15.70;88.10;;;;;;4142452;28;20048;-68
2022/10/01 03:31:40;;;;;;;0.00;0.00;;;15.70;88.20;;;;;;4144671;28;20297;-68
2022/10/01 03:34:21;;;;;;;0.00;0.00;;;15.70;88.20;;;;;;4144645;28;20061;-68
2022/10/01 03:37:02;;;;;;;0.00;0.00;;;15.70;88.30;;;;;;4144961;28;20049;-67
2022/10/01 03:39:45;;;;;;;0.00;0.00;;;15.70;88.40;;;;;;4144751;28;20576;-68
2022/10/01 03:42:25;;;;;;;0.50;0.50;;;15.70;89.30;;;;;;4149171;28;20060;-67
2022/10/01 03:45:07;;;;;;;0.00;0.00;;;15.70;88.40;;;;;;4160923;28;20052;-68
2022/10/01 03:47:52;;;;;;;0.00;0.00;;;15.60;88.30;;;;;;4160239;28;20115;-67
2022/10/01 03:50:32;;;;;;;0.10;0.10;;;15.60;88.40;;;;;;4160064;28;20088;-67
2022/10/01 03:53:13;;;;;;;0.00;0.00;;;15.70;88.50;;;;;;4161009;28;20397;-68
2022/10/01 03:55:56;;;;;;;0.00;0.00;;;15.60;88.40;;;;;;4161028;28;20876;-67
2022/10/01 03:58:37;;;;;;;0.00;0.00;;;15.70;88.60;;;;;;4147100;28;20068;-68
2022/10/01 04:01:18;;;;;;;0.00;0.00;;;15.60;89.40;;;;;;4144303;28;20057;-68
2022/10/01 04:03:59;;;;;;;0.13;0.13;;;15.60;88.70;;;;;;4144546;28;20048;-68
2022/10/01 04:06:40;;;;;;;0.00;0.00;;;15.60;88.70;;;;;;4144209;28;20048;-68
2022/10/01 04:09:20;;;;;;;0.00;0.00;;;15.60;88.70;;;;;;4144351;28;20057;-67
2022/10/01 04:12:03;;;;;;;0.20;0.20;;;15.60;88.80;;;;;;4144415;28;20056;-69
2022/10/01 04:14:44;;;;;;;0.00;0.00;;;15.60;88.90;;;;;;4152220;28;20064;-68
2022/10/01 04:17:25;;;;;;;0.00;0.00;;;15.60;88.90;;;;;;4146876;28;20060;-67
2022/10/01 04:20:07;;;;;;;0.30;0.30;;;15.60;88.90;;;;;;4144469;28;20404;-65
2022/10/01 04:22:48;;;;;;;0.00;0.00;;;15.60;88.90;;;;;;4144336;28;20057;-65
2022/10/01 04:25:29;;;;;;;0.00;0.00;;;15.60;89.70;;;;;;4148725;28;20052;-65
2022/10/01 04:28:13;;;;;;;0.00;0.00;;;15.60;88.90;;;;;;4144102;28;20132;-65
2022/10/01 04:31:23;;;;;;;0.10;0.10;;;15.60;89.00;;;;;;4143689;28;20403;-64
2022/10/01 04:33:57;;;;;;;0.10;0.10;;;15.60;89.00;;;;;;4143562;28;20151;-65
2022/10/01 04:36:38;;;;;;;0.00;0.00;;;15.60;89.10;;;;;;4143663;28;20180;-64
2022/10/01 04:39:19;;;;;;;0.00;0.00;;;15.60;89.20;;;;;;4157794;28;20044;-65
2022/10/01 04:42:00;;;;;;;0.00;0.00;;;15.60;89.10;;;;;;4160121;28;20187;-65
2022/10/01 04:44:42;;;;;;;0.00;0.00;;;15.60;89.10;;;;;;4160464;28;20044;-64
2022/10/01 04:47:23;;;;;;;0.13;0.13;;;15.60;89.20;;;;;;4159933;28;20045;-64
2022/10/01 04:50:05;;;;;;;0.00;0.00;;;15.60;89.20;;;;;;4158787;28;20182;-65
2022/10/01 04:52:45;;;;;;;;;;;15.60;89.30;;;;;;4144132;28;20068;-65
2022/10/01 04:55:27;;;;;;;0.00;0.00;;;15.60;89.20;;;;;;4144743;28;19929;-65
2022/10/01 04:58:08;;;;;;;0.00;0.00;;;15.60;89.20;;;;;;4146391;28;20061;-64
2022/10/01 05:00:50;;;;;;;0.00;0.00;;;15.50;89.30;;;;;;4159996;28;20402;-65
2022/10/01 05:03:31;;;;;;;0.00;0.00;;;15.50;89.20;;;;;;4160076;28;20513;-64
2022/10/01 05:06:12;;;;;;;0.00;0.00;;;15.60;89.40;;;;;;4159836;28;20056;-64
2022/10/01 05:08:53;;;;;;;0.10;0.10;;;15.50;89.30;;;;;;4159033;28;20052;-64
2022/10/01 05:11:34;;;;;;;0.00;0.00;;;15.50;89.30;;;;;;4155926;28;20427;-65
2022/10/01 05:14:15;;;;;;;0.00;0.00;;;15.60;89.50;;;;;;4143241;28;20793;-65
2022/10/01 05:16:57;;;;;;;0.00;0.00;;;15.50;89.50;;;;;;4143199;28;20053;-65
2022/10/01 05:19:37;;;;;;;0.00;0.00;;;15.50;89.50;;;;;;4143423;28;20777;-65
2022/10/01 05:22:19;;;;;;;0.00;0.00;;;15.50;89.50;;;;;;4143411;28;20180;-65
2022/10/01 05:25:01;;;;;;;0.00;0.00;;;15.60;89.60;;;;;;4143305;28;20065;-65
2022/10/01 05:27:41;;;;;;;;;;;15.50;89.60;;;;;;4145063;28;20083;-64
2022/10/01 05:30:24;;;;;;;0.10;0.10;;;15.60;89.70;;;;;;4143158;28;19948;-64
2022/10/01 05:33:06;;;;;;;0.00;0.00;;;15.60;89.70;;;;;;4143359;28;20117;-65
2022/10/01 05:35:46;;;;;;;0.00;0.00;;;15.50;89.70;;;;;;4143173;28;20056;-63
2022/10/01 05:38:27;;;;;;;0.00;0.00;;;15.50;89.80;;;;;;4143047;28;20120;-65
2022/10/01 05:41:09;;;;;;;0.00;0.00;;;15.50;89.80;;;;;;4143621;28;20053;-63
2022/10/01 05:43:50;;;;;;;0.00;0.00;;;15.50;89.90;;;;;;4142907;28;20056;-64
2022/10/01 05:46:31;;;;;;;0.00;0.00;;;15.50;90.00;;;;;;4143228;28;20061;-63
2022/10/01 05:49:14;;;;;;;0.00;0.00;;;15.60;90.00;;;;;;4142916;28;20056;-64
2022/10/01 05:51:55;;;;;;;0.95;0.95;;;15.50;90.00;;;;;;4142749;28;20497;-64
2022/10/01 05:54:36;;;;;;;0.00;0.00;;;15.60;90.10;;;;;;4164394;28;20073;-64
2022/10/01 05:57:17;;;;;;;0.00;0.00;;;15.60;90.00;;;;;;4143364;28;20053;-64
2022/10/01 05:59:58;;;;;;;0.00;0.00;;;15.60;90.00;;;;;;4154396;28;20053;-66
2022/10/01 06:02:39;;;;;;;0.00;0.00;;;15.60;90.20;;;;;;4158582;28;20417;-66
2022/10/01 06:05:22;;;;;;;0.00;0.00;;;15.60;90.30;;;;;;4142749;28;20068;-66
2022/10/01 06:08:05;;;;;;;0.00;0.00;;;15.70;90.20;;;;;;4141322;28;20077;-66
2022/10/01 06:10:46;;;;;;;0.15;0.15;;;15.60;90.20;;;;;;4142457;28;20064;-66
2022/10/01 06:13:28;;;;;;;0.68;0.63;;;15.60;90.20;;;;;;4142591;28;20053;-66
2022/10/01 06:16:08;;;;;;;0.00;0.00;;;15.60;90.20;;;;;;4141527;28;20124;-67
2022/10/01 06:18:55;;;;;;;0.00;0.00;;;15.60;90.20;;;;;;4142568;28;20053;-68
2022/10/01 06:21:38;;;;;;;0.00;0.00;;;15.70;90.20;;;;;;4152730;28;20191;-70
2022/10/01 06:24:18;;;;;;;0.00;0.00;;;15.60;90.20;;;;;;4158206;28;20048;-70
2022/10/01 06:26:59;;;;;;;0.00;0.00;;;15.60;90.30;;;;;;4158188;28;20056;-67
2022/10/01 06:29:40;;;;;;;0.00;0.00;;;15.60;90.30;;;;;;4158387;28;20052;-67
2022/10/01 06:32:21;;;;;;;0.00;0.00;;;15.60;90.30;;;;;;4157551;28;20099;-67
2022/10/01 06:35:02;;;;;;;0.00;0.00;;;15.60;90.30;;;;;;4158523;28;20438;-66
2022/10/01 06:37:44;;;;;;;0.00;0.00;;;15.60;90.30;;;;;;4150335;28;20049;-67
2022/10/01 06:40:25;;;;;;;0.00;0.00;;;15.60;90.30;;;;;;4141205;28;20391;-66
2022/10/01 06:43:07;;;;;;;0.00;0.00;;;15.60;90.30;;;;;;4142562;28;20465;-66
2022/10/01 06:45:48;;;;;;;0.00;0.00;;;15.60;90.40;;;;;;4141155;28;20107;-66
2022/10/01 06:48:30;;;;;;;5.57;1.98;;;15.60;90.40;;;;;;4142329;28;20139;-66
2022/10/01 06:51:11;;;;;;;0.00;0.00;;;15.60;90.40;;;;;;4141824;28;20184;-66
2022/10/01 06:53:53;;;;;;;0.10;0.08;;;15.70;90.50;;;;;;4149870;28;20107;-66
2022/10/01 06:56:35;;;;;;;0.00;0.00;;;15.70;90.50;;;;;;4150116;28;20068;-66
2022/10/01 06:59:16;;;;;;;0.00;0.00;;;15.60;90.40;;;;;;4155007;28;20107;-66
2022/10/01 07:01:57;;;;;;;0.00;0.00;;;15.60;90.80;;;;;;4144034;28;20112;-66
2022/10/01 07:04:38;;;;;;;0.00;0.00;;;15.60;90.50;;;;;;4144089;28;20056;-65
2022/10/01 07:07:19;;;;;;;0.00;0.00;;;15.70;90.50;;;;;;4153153;28;20048;-67
2022/10/01 07:10:02;;;;;;;0.00;0.00;;;15.70;90.50;;;;;;4156674;28;20129;-66
2022/10/01 07:12:43;;;;;;;0.00;0.00;;;15.60;90.80;;;;;;4146812;28;20053;-67
2022/10/01 07:15:24;;;;;;;0.00;0.00;;;15.70;90.50;;;;;;4146289;28;20122;-67
2022/10/01 07:18:08;;;;;;;0.00;0.00;;;15.60;90.50;;;;;;4144807;28;20061;-67
2022/10/01 07:20:49;;;;;;;0.00;0.00;;;15.60;90.60;;;;;;4145176;28;20057;-67
2022/10/01 07:23:30;;;;;;;0.00;0.00;;;15.70;90.60;;;;;;4144324;28;20057;-67
2022/10/01 07:26:12;;;;;;;0.00;0.00;;;15.70;90.60;;;;;;4146053;28;20057;-67
2022/10/01 07:28:54;;;;;;;0.00;0.00;;;15.70;90.80;;;;;;4144698;28;20061;-67
2022/10/01 07:31:34;;;;;;;0.00;0.00;;;15.70;90.80;;;;;;4151405;28;20052;-66
2022/10/01 07:34:16;;;;;;;0.05;0.05;;;15.70;90.80;;;;;;4144686;28;20060;-66
2022/10/01 07:36:57;;;;;;;0.00;0.00;;;15.80;90.80;;;;;;4155963;28;20058;-66
2022/10/01 07:39:38;;;;;;;0.00;0.00;;;15.80;90.80;;;;;;4144633;28;20065;-66
2022/10/01 07:42:21;;;;;;;0.00;0.00;;;15.80;90.80;;;;;;4144942;28;20049;-66
2022/10/01 07:45:05;;;;;;;0.00;0.00;;;15.80;90.70;;;;;;4154265;28;20049;-66
2022/10/01 07:47:52;;;;;;;0.00;0.00;;;15.80;90.70;;;;;;4144169;28;20057;-66
2022/10/01 07:50:34;;;;;;;0.00;0.00;;;15.80;90.80;;;;;;4158728;28;20061;-66
2022/10/01 07:53:14;;;;;;;0.00;0.00;;;15.80;91.20;;;;;;4160939;28;20160;-66
2022/10/01 07:55:55;;;;;;;0.05;0.05;;;15.80;90.80;;;;;;4160051;28;20056;-66
2022/10/01 07:58:38;;;;;;;0.00;0.00;;;15.80;90.90;;;;;;4160706;28;20045;-65
2022/10/01 08:01:19;;;;;;;0.00;0.00;;;15.80;90.90;;;;;;4142460;28;20127;-67
2022/10/01 08:04:00;;;;;;;0.00;0.00;;;15.90;91.10;;;;;;4157572;28;20073;-66
2022/10/01 08:06:41;;;;;;;0.00;0.00;;;15.90;91.20;;;;;;4151270;28;20065;-66
2022/10/01 08:09:23;;;;;;;0.38;0.38;;;16.00;91.30;;;;;;4147416;28;20409;-66
2022/10/01 08:12:04;;;;;;;0.00;0.00;;;16.00;91.30;;;;;;4142257;28;20057;-66
2022/10/01 08:14:47;;;;;;;0.00;0.00;;;16.10;91.30;;;;;;4152439;28;20060;-66
2022/10/01 08:17:28;;;;;;;0.00;0.00;;;16.10;91.20;;;;;;4141702;28;20526;-66
2022/10/01 08:20:12;;;;;;;0.00;0.00;;;16.20;91.20;;;;;;4153026;28;20150;-66
2022/10/01 08:22:53;;;;;;;0.75;0.75;;;16.20;91.10;;;;;;4142018;28;20096;-66
2022/10/01 08:25:34;;;;;;;0.00;0.00;;;16.30;91.00;;;;;;4140887;28;20081;-66
2022/10/01 08:28:16;;;;;;;0.25;0.25;;;16.30;90.90;;;;;;4154858;28;20473;-65
2022/10/01 08:30:58;;;;;;;0.00;0.00;;;16.30;90.80;;;;;;4141851;28;20056;-67
2022/10/01 08:33:39;;;;;;;0.00;0.00;;;16.40;90.80;;;;;;4152048;28;20131;-66
2022/10/01 08:36:20;;;;;;;;;;;16.30;90.60;;;;;;4152678;28;20053;-66
2022/10/01 08:39:02;;;;;;;0.00;0.00;;;16.40;90.70;;;;;;4157747;28;19947;-66
2022/10/01 08:41:53;;;;;;;0.00;0.00;;;16.40;90.60;;;;;;4157472;28;20060;-68
2022/10/01 08:44:40;;;;;;;0.00;0.00;;;16.30;90.60;;;;;;4145362;28;20051;-68
2022/10/01 08:47:29;;;;;;;0.00;0.00;;;16.40;90.80;;;;;;4143599;28;20497;-68
2022/10/01 08:50:18;;;;;;;0.00;0.00;;;16.30;90.60;;;;;;4151443;28;20092;-68
2022/10/01 08:53:02;;;;;;;0.00;0.00;;;16.40;90.70;;;;;;4145598;28;20049;-68
2022/10/01 08:55:45;;;;;;;0.00;0.00;;;16.40;90.70;;;;;;4141441;28;20072;-68
2022/10/01 08:58:31;;;;;;;0.00;0.00;;;16.40;90.80;;;;;;4144369;28;20064;-68
2022/10/01 09:01:12;;;;;;;0.00;0.00;;;16.50;90.80;;;;;;4149801;28;20052;-68
2022/10/01 09:03:54;;;;;;;;;;;16.50;90.70;;;;;;4148186;28;20053;-67
2022/10/01 09:06:37;;;;;;;0.00;0.00;;;16.50;90.70;;;;;;4153043;28;19932;-68
2022/10/01 09:09:37;;;;;;;0.30;0.30;;;16.50;90.50;;;;;;4141192;28;20552;-68
2022/10/01 09:12:29;;;;;;;0.00;0.00;;;16.60;90.50;;;;;;4147915;28;20060;-68
2022/10/01 09:15:20;;;;;;;1.88;0.98;;;16.60;90.50;;;;;;4140945;28;20446;-68
2022/10/01 09:18:14;;;;;;;0.00;0.00;;;16.70;90.60;;;;;;4156953;28;20049;-68
2022/10/01 09:20:58;;;;;;;0.00;0.00;;;16.70;90.60;;;;;;4140581;28;20390;-68
2022/10/01 09:23:48;;;;;;;0.00;0.00;;;16.70;90.20;;;;;;4156767;28;20060;-68
2022/10/01 09:26:29;;;;;;;0.00;0.00;;;16.70;90.00;;;;;;4146804;28;20052;-68
2022/10/01 09:29:16;;;;;;;0.00;0.00;;;16.80;90.00;;;;;;4153671;28;20605;-64
2022/10/01 09:32:00;;;;;;;0.00;0.00;;;16.80;90.10;;;;;;4140637;28;20147;-63
2022/10/01 09:34:43;;;;;;;0.00;0.00;;;16.80;90.20;;;;;;4153294;28;20057;-63
2022/10/01 09:37:37;;;;;;;0.00;0.00;;;16.90;90.00;;;;;;4145995;28;20523;-63
2022/10/01 09:40:27;;;;;;;0.00;0.00;;;16.90;89.80;;;;;;4156461;28;20048;-63
2022/10/01 09:43:11;;;;;;;0.00;0.00;;;16.90;89.60;;;;;;4140725;28;20065;-64
2022/10/01 09:45:52;;;;;;;0.00;0.00;;;17.00;90.00;;;;;;4140751;28;20161;-64
2022/10/01 09:48:41;;;;;;;0.00;0.00;;;17.00;90.00;;;;;;4142948;28;20064;-65
2022/10/01 09:51:27;;;;;;;0.00;0.00;;;17.00;89.90;;;;;;4150991;28;20060;-65
2022/10/01 09:54:15;;;;;;;0.05;0.05;;;17.10;90.00;;;;;;4147612;28;20168;-64
2022/10/01 09:57:09;;;;;;;0.00;0.00;;;17.10;90.00;;;;;;4145309;28;20060;-65
2022/10/01 09:59:56;;;;;;;0.00;0.00;;;17.10;89.90;;;;;;4141042;28;20399;-64
2022/10/01 10:02:40;;;;;;;0.00;0.00;;;17.10;89.80;;;;;;4141422;28;20057;-64
2022/10/01 10:05:30;;;;;;;0.32;0.32;;;17.10;89.80;;;;;;4146115;28;20099;-64
2022/10/01 10:08:14;;;;;;;0.00;0.00;;;17.10;89.90;;;;;;4146414;28;20060;-64
2022/10/01 10:10:59;;;;;;;0.00;0.00;;;17.00;89.80;;;;;;4146296;28;20061;-65
2022/10/01 10:13:42;;;;;;;0.00;0.00;;;17.00;89.90;;;;;;4153581;28;20188;-64
2022/10/01 10:16:26;;;;;;;0.10;0.10;;;17.00;89.90;;;;;;4154701;28;20152;-64
2022/10/01 10:19:15;;;;;;;0.00;0.00;;;17.00;89.80;;;;;;4148377;28;20135;-64
2022/10/01 10:21:58;;;;;;;0.00;0.00;;;17.00;89.90;;;;;;4140623;28;20147;-64
2022/10/01 10:24:39;;;;;;;0.00;0.00;;;16.90;89.90;;;;;;4143897;28;20056;-64
2022/10/01 10:27:26;;;;;;;0.00;0.00;;;16.90;90.00;;;;;;4141817;28;21373;-64
2022/10/01 10:30:14;;;;;;;0.00;0.00;;;16.90;90.10;;;;;;4140158;28;20185;-64
2022/10/01 10:33:03;;;;;;;0.10;0.10;;;16.90;90.10;;;;;;4152687;28;20065;-65
2022/10/01 10:35:44;;;;;;;0.52;0.52;;;16.80;90.10;;;;;;4149358;28;20056;-64
2022/10/01 10:38:28;;;;;;;0.25;0.25;;;16.80;90.10;;;;;;4144294;28;20072;-64
2022/10/01 10:41:16;;;;;;;8.75;6.18;;;16.80;90.10;;;;;;4147031;28;20060;-64
2022/10/01 10:44:02;;;;;;;3.38;3.28;;;16.80;90.30;;;;;;4153628;28;20190;-64
2022/10/01 10:46:44;;;;;;;7.75;4.95;;;16.70;90.40;;;;;;4146594;28;20076;-63
2022/10/01 10:49:29;;;;;;;4.05;3.80;;;16.70;90.40;;;;;;4151157;28;20056;-64
2022/10/01 10:52:20;;;;;;;7.75;3.13;;;16.70;90.50;;;;;;4158893;28;20068;-64
2022/10/01 10:55:18;;;;;;;1.80;1.70;;;16.70;90.60;;;;;;4144066;28;20083;-63
2022/10/01 10:58:10;;;;;;;2.38;2.33;;;16.60;90.50;;;;;;4155158;28;20052;-63
2022/10/01 11:00:54;;;;;;;;;;;16.60;90.60;;;;;;4130507;28;20112;-63
2022/10/01 11:03:43;;;;;;;2.13;1.95;;;16.60;90.70;;;;;;4152055;28;19932;-64
2022/10/01 11:06:25;;;;;;;4.22;3.85;;;16.60;90.70;;;;;;4154178;28;20188;-62
2022/10/01 11:09:11;;;;;;;0.90;0.90;;;16.60;90.80;;;;;;4163255;28;20052;-63
2022/10/01 11:12:09;;;;;;;3.55;3.30;;;16.50;90.70;;;;;;4137241;28;20508;-63
2022/10/01 11:15:06;;;;;;;4.75;2.50;;;16.50;90.70;;;;;;4128196;28;20563;-63
2022/10/01 11:18:14;;;;;;;1.30;1.30;;;16.50;90.90;;;;;;4141935;28;20464;-62
2022/10/01 11:21:12;;;;;;;7.00;2.47;;;16.60;91.10;;;;;;4161564;28;20402;-59
2022/10/01 11:24:21;;;;;;;1.33;1.33;;;16.60;91.00;;;;;;4158717;28;20048;-62
2022/10/01 11:27:11;;;;;;;9.13;1.27;;;16.60;91.00;;;;;;4146241;28;20182;-62
2022/10/01 11:30:00;;;;;;;1.02;1.02;;;16.60;90.90;;;;;;4147020;28;20059;-63
2022/10/01 11:32:45;;;;;;;0.65;0.65;;;16.60;90.90;;;;;;4157349;28;20052;-63
2022/10/01 11:35:40;;;;;;;1.15;1.15;;;16.60;90.90;;;;;;4145695;28;20051;-63
2022/10/01 11:38:57;;;;;;;4.15;1.40;;;16.60;91.00;;;;;;4157267;28;20199;-63
2022/10/01 11:41:43;;;;;;;0.28;0.28;;;16.60;90.90;;;;;;4109476;28;20049;-63
2022/10/01 11:44:32;;;;;;;7.20;2.25;;;16.70;90.90;;;;;;4111766;28;20100;-63
2022/10/01 11:47:19;;;;;;;0.00;0.00;;;16.70;90.90;;;;;;4142229;28;20613;-63
2022/10/01 11:50:14;;;;;;;0.00;0.00;;;16.70;90.80;;;;;;4142080;28;20061;-63
2022/10/01 11:53:02;;;;;;;1.58;1.58;;;16.70;90.80;;;;;;4153983;28;20110;-66
2022/10/01 11:58:54;;;;;;;0.57;0.57;;;16.80;90.70;;;;;;4156437;28;20056;-65
2022/10/01 12:01:39;;;;;;;1.38;0.93;;;16.80;90.70;;;;;;4158660;28;20056;-65
2022/10/01 12:04:31;;;;;;;0.50;0.50;;;16.80;90.60;;;;;;4154014;28;20057;-65
2022/10/01 12:07:23;;;;;;;0.38;0.38;;;16.80;90.60;;;;;;4141570;28;20767;-65
2022/10/01 12:10:20;;;;;;;0.13;0.13;;;16.80;90.60;;;;;;4157410;28;20048;-65
2022/10/01 12:13:07;;;;;;;2.20;2.00;;;16.90;91.00;;;;;;4157486;28;20063;-66
2022/10/01 12:15:54;;;;;;;0.43;0.43;;;16.90;90.90;;;;;;4158224;28;20203;-65
2022/10/01 12:18:50;;;;;;;0.65;0.65;;;16.90;90.50;;;;;;4142211;28;20057;-65
2022/10/01 12:21:41;;;;;;;0.50;0.50;;;16.90;90.40;;;;;;4150483;28;20100;-65
2022/10/01 12:24:28;;;;;;;0.45;0.45;;;16.90;90.40;;;;;;4158159;28;20196;-65
2022/10/01 12:27:31;;;;;;;2.75;2.60;;;17.00;90.40;;;;;;4142004;28;20103;-65
2022/10/01 12:30:18;;;;;;;0.47;0.47;;;17.00;90.40;;;;;;4145145;28;20130;-66
2022/10/01 12:33:20;;;;;;;1.27;1.20;;;17.00;90.40;;;;;;4141948;28;20084;-65
2022/10/01 12:36:11;;;;;;;0.10;0.10;;;17.00;90.30;;;;;;4151267;28;20506;-65
2022/10/01 12:39:06;;;;;;;0.75;0.75;;;17.00;90.30;;;;;;4147581;28;20060;-66
2022/10/01 12:41:59;;;;;;;0.75;0.75;;;17.00;90.30;;;;;;4141591;28;20065;-66
2022/10/01 12:44:53;;;;;;;7.43;2.17;;;17.00;90.30;;;;;;4157450;28;20059;-65
2022/10/01 12:47:43;;;;;;;0.20;0.20;;;17.00;90.20;;;;;;4141705;28;20191;-65
2022/10/01 12:50:38;;;;;;;0.32;0.32;;;17.00;90.20;;;;;;4141996;28;20100;-66
2022/10/01 12:53:30;;;;;;;1.13;1.10;;;17.00;90.30;;;;;;4157138;28;20221;-65
2022/10/01 12:56:17;;;;;;;0.00;0.00;;;17.10;90.20;;;;;;4157603;28;20088;-65
2022/10/01 12:59:27;;;;;;;0.52;0.52;;;17.00;90.20;;;;;;4146799;28;20304;-66
2022/10/01 13:02:38;;;;;;;0.63;0.63;;;17.00;90.10;;;;;;4149279;28;20061;-66
2022/10/01 13:05:28;;;;;;;0.00;0.00;;;17.10;90.10;;;;;;4138685;28;20065;-65
2022/10/01 13:08:29;;;;;;;0.20;0.20;;;17.10;90.00;;;;;;4144749;28;20222;-64
2022/10/01 13:11:20;;;;;;;0.10;0.10;;;17.10;90.00;;;;;;4154642;28;20631;-64
2022/10/01 13:14:03;;;;;;;1.35;1.25;;;17.10;89.70;;;;;;4144812;28;20120;-64
2022/10/01 13:16:53;;;;;;;0.00;0.00;;;17.10;89.60;;;;;;4134382;28;20074;-64
2022/10/01 13:19:43;;;;;;;0.30;0.30;;;17.10;89.30;;;;;;4145392;28;20413;-65
2022/10/01 13:22:33;;;;;;;0.30;0.30;;;17.10;89.30;;;;;;4151603;28;20513;-66
2022/10/01 13:25:24;;;;;;;;;;;17.10;89.30;;;;;;4147288;28;20132;-67
2022/10/01 13:28:16;;;;;;;0.43;0.43;;;17.10;89.20;;;;;;4154077;28;20084;-67
2022/10/01 13:31:00;;;;;;;0.00;0.00;;;17.10;89.00;;;;;;4147723;28;20122;-63
2022/10/01 13:33:41;;;;;;;0.00;0.00;;;17.10;89.00;;;;;;4156447;28;20068;-63
2022/10/01 13:36:37;;;;;;;0.00;0.00;;;17.00;89.00;;;;;;4147038;28;20052;-64
2022/10/01 13:39:22;;;;;;;0.00;0.00;;;17.10;89.10;;;;;;4153240;28;20057;-64
2022/10/01 13:42:05;;;;;;;0.65;0.65;;;17.00;89.00;;;;;;4140827;28;20120;-64
2022/10/01 13:44:53;;;;;;;0.00;0.00;;;17.00;89.00;;;;;;4155349;28;20056;-64
2022/10/01 13:47:39;;;;;;;0.00;0.00;;;17.00;89.20;;;;;;4142982;28;20383;-64
2022/10/01 13:50:23;;;;;;;5.82;0.68;;;17.00;89.30;;;;;;4135176;28;20056;-63
2022/10/01 13:53:16;;;;;;;0.00;0.00;;;17.00;89.40;;;;;;4152948;28;20052;-62
2022/10/01 13:55:59;;;;;;;0.00;0.00;;;16.90;89.50;;;;;;4140847;28;20526;-62
2022/10/01 13:58:42;;;;;;;0.00;0.00;;;17.00;89.60;;;;;;4142682;28;20048;-64
2022/10/01 14:01:37;;;;;;;0.00;0.00;;;17.00;89.70;;;;;;4148416;28;20055;-62
2022/10/01 14:04:23;;;;;;;0.00;0.00;;;16.90;89.60;;;;;;4147720;28;20497;-62
2022/10/01 14:07:15;;;;;;;0.00;0.00;;;16.90;89.60;;;;;;4140207;28;20060;-62
2022/10/01 14:10:00;;;;;;;0.00;0.00;;;16.90;89.60;;;;;;4145378;28;20065;-63
2022/10/01 14:15:58;;;;;;;0.00;0.00;;;16.90;89.70;;;;;;4155538;28;20057;-62
2022/10/01 14:18:43;;;;;;;0.00;0.00;;;16.90;89.70;;;;;;4154608;28;20075;-62
2022/10/01 14:21:44;;;;;;;0.00;0.00;;;16.90;89.80;;;;;;4151586;28;20068;-62
2022/10/01 14:24:32;;;;;;;0.00;0.00;;;16.90;89.80;;;;;;4155775;28;20052;-62
2022/10/01 14:27:19;;;;;;;0.45;0.45;;;16.90;90.00;;;;;;4143632;28;20053;-63